Anderson Island, Washington
Current Conditions -  °F | °C
As of 6:20 AM on Friday 24 Oct 2014 (Local Time) from KGRF Reporting Station
Moderate Rain Moderate Rain  
Wind Chill: 45°   Ceiling: Unl
Heat Index: 45°   Visibility: 6mi
Dew Point: 45°   Wind: 1mph
Humidity: 100%   Direction: 70°ENE
Pressure: 30.01"   Gusts: NA
Location:  47.16°N, 122.7°W
Report Text: KGRF 241320Z AUTO 07001KT 6SM R15/5500FT RA BR CLR 07/07 A3001 RMK AO2
Loading
Personal Weather Stations






























Interactive Weather Map
Tropical Storm Tracking
New forecast layout! Learn more

10-Day Weather Forecast

Advertisements
Track Severe Weather on mobile